Time;durP1;ratioP1;P1;durP2;ratioP2;P2;SDS_P1;SDS_P2;PMS_P1;PMS_P2;Temp;Humidity;BMP_temperature;BMP_pressure;BME280_temperature;BME280_humidity;BME280_pressure;Samples;Min_cycle;Max_cycle;Signal;HPM_P1;HPM_P2
2023/12/09 00:00:46;;;;;;;4.88;4.43;;;5.30;99.90;;;;;;5014366;28;20218;-72
2023/12/09 00:03:14;;;;;;;9.95;5.35;;;5.30;99.90;;;;;;5015033;28;20202;-72
2023/12/09 00:05:40;;;;;;;6.93;4.80;;;5.30;99.90;;;;;;5014570;28;20218;-71
2023/12/09 00:08:07;;;;;;;7.85;4.68;;;5.30;99.90;;;;;;5014004;28;20735;-71
2023/12/09 00:10:34;;;;;;;7.78;5.10;;;5.30;99.90;;;;;;5018904;28;20229;-72
2023/12/09 00:13:01;;;;;;;7.18;4.22;;;5.30;99.90;;;;;;5014645;28;20209;-72
2023/12/09 04:31:26;;;;;;;5.07;3.33;;;4.10;99.90;;;;;;5741624;22;20277;-74
2023/12/09 04:33:52;;;;;;;4.03;2.90;;;4.00;99.90;;;;;;4995383;28;20680;-74
2023/12/09 04:36:19;;;;;;;3.42;2.72;;;4.10;99.90;;;;;;4997167;28;20214;-75
2023/12/09 04:38:46;;;;;;;3.33;2.63;;;4.10;99.90;;;;;;5011083;28;20207;-74
2023/12/09 04:41:12;;;;;;;5.10;2.22;;;4.20;99.90;;;;;;5010227;28;20232;-74
2023/12/09 04:43:39;;;;;;;3.05;2.75;;;4.20;99.90;;;;;;5011371;28;20218;-73
2023/12/09 04:46:06;;;;;;;2.72;2.53;;;4.30;99.90;;;;;;5009527;28;20688;-74
2023/12/09 04:48:34;;;;;;;5.55;2.58;;;4.30;99.90;;;;;;5011240;28;20209;-74
2023/12/09 04:51:01;;;;;;;4.22;2.63;;;4.40;99.90;;;;;;5009586;28;20230;-73
2023/12/09 04:53:27;;;;;;;7.72;4.32;;;4.40;99.90;;;;;;5011670;28;20201;-74
2023/12/09 04:55:54;;;;;;;4.30;2.50;;;4.40;99.90;;;;;;5010315;28;20213;-73
2023/12/09 04:58:21;;;;;;;3.05;2.55;;;4.50;99.90;;;;;;5011175;28;20545;-73
2023/12/09 05:00:47;;;;;;;7.68;2.70;;;4.50;99.90;;;;;;5011638;28;20224;-74
2023/12/09 05:03:14;;;;;;;5.63;2.55;;;4.50;99.90;;;;;;5011612;28;20217;-74
2023/12/09 05:05:42;;;;;;;3.83;2.72;;;4.50;99.90;;;;;;5011255;28;20576;-72
2023/12/09 05:08:09;;;;;;;4.88;3.45;;;4.60;99.90;;;;;;5010044;28;20235;-73
2023/12/09 05:10:35;;;;;;;4.18;3.13;;;4.60;99.90;;;;;;5011425;28;20235;-73
2023/12/09 05:13:02;;;;;;;3.22;2.40;;;4.60;99.90;;;;;;5010375;28;20209;-73
2023/12/09 05:15:29;;;;;;;3.33;2.22;;;4.70;99.90;;;;;;5011810;28;20670;-73
2023/12/09 05:17:56;;;;;;;2.08;1.80;;;4.70;99.90;;;;;;5010011;28;20212;-73
2023/12/09 05:20:23;;;;;;;3.60;2.15;;;4.70;99.90;;;;;;5004497;28;20580;-73
2023/12/09 05:22:51;;;;;;;2.80;2.45;;;4.70;99.90;;;;;;5011546;28;20305;-73
2023/12/09 05:25:18;;;;;;;2.70;1.90;;;4.70;99.90;;;;;;5010943;28;20215;-73
2023/12/09 05:27:45;;;;;;;2.05;1.42;;;4.70;99.90;;;;;;5011028;28;20208;-74
2023/12/09 05:30:12;;;;;;;2.03;1.92;;;4.70;99.90;;;;;;5010636;28;20214;-73
2023/12/09 05:32:39;;;;;;;2.28;1.67;;;4.70;99.90;;;;;;5011483;28;20214;-73
2023/12/09 05:35:07;;;;;;;2.65;2.40;;;4.70;99.90;;;;;;5010875;28;20207;-73
2023/12/09 05:37:33;;;;;;;7.03;2.38;;;4.70;99.90;;;;;;5011323;28;20225;-73
2023/12/09 05:40:01;;;;;;;2.78;2.58;;;4.70;99.90;;;;;;5010986;28;20217;-73
2023/12/09 05:42:28;;;;;;;2.28;2.08;;;4.70;99.90;;;;;;5011346;28;20231;-74
2023/12/09 05:44:55;;;;;;;3.30;1.75;;;4.70;99.90;;;;;;5011351;28;20611;-73
2023/12/09 05:47:22;;;;;;;2.80;2.25;;;4.70;99.90;;;;;;5011436;28;20214;-73
2023/12/09 05:49:49;;;;;;;2.05;1.70;;;4.70;99.90;;;;;;5011569;28;20260;-73
2023/12/09 05:52:16;;;;;;;2.95;2.42;;;4.70;99.90;;;;;;5011662;28;20269;-73
2023/12/09 05:54:43;;;;;;;3.92;2.67;;;4.70;99.90;;;;;;5011792;28;20215;-73
2023/12/09 05:57:11;;;;;;;2.38;2.05;;;4.70;99.90;;;;;;5011106;28;20220;-73
2023/12/09 05:59:37;;;;;;;2.88;2.08;;;4.70;99.90;;;;;;5011437;28;20697;-73
2023/12/09 06:02:05;;;;;;;3.95;1.75;;;4.70;99.90;;;;;;5011380;28;20232;-73
2023/12/09 06:04:32;;;;;;;1.95;1.85;;;4.70;99.90;;;;;;5011838;28;20211;-73
2023/12/09 06:06:58;;;;;;;3.75;2.40;;;4.80;99.90;;;;;;5010788;28;20205;-74
2023/12/09 06:09:25;;;;;;;3.00;1.40;;;4.70;99.90;;;;;;5011763;28;20207;-74
2023/12/09 06:11:52;;;;;;;3.08;1.80;;;4.70;99.90;;;;;;5011509;28;20237;-74
2023/12/09 06:14:20;;;;;;;3.40;1.80;;;4.70;99.90;;;;;;5011646;28;20290;-74
2023/12/09 06:16:48;;;;;;;2.00;1.80;;;4.70;99.90;;;;;;5011657;28;20216;-73
2023/12/09 06:19:14;;;;;;;3.22;2.38;;;4.70;99.90;;;;;;5011018;28;20236;-73
2023/12/09 06:21:41;;;;;;;2.42;2.05;;;4.70;99.90;;;;;;5011942;28;20235;-73
2023/12/09 06:24:08;;;;;;;1.95;1.75;;;4.70;99.90;;;;;;5011787;28;20208;-73
2023/12/09 06:26:41;;;;;;;2.78;2.33;;;4.70;99.90;;;;;;5011848;28;20215;-73
2023/12/09 06:29:08;;;;;;;1.60;1.50;;;4.70;99.90;;;;;;5010365;28;20212;-73
2023/12/09 06:31:37;;;;;;;3.80;1.70;;;4.70;99.90;;;;;;4992411;28;20613;-72
2023/12/09 06:34:04;;;;;;;1.95;1.73;;;4.80;99.90;;;;;;4992491;28;20567;-73
2023/12/09 06:36:31;;;;;;;2.05;1.67;;;4.80;99.90;;;;;;4992695;28;20218;-73
2023/12/09 06:38:58;;;;;;;2.55;1.98;;;4.80;99.90;;;;;;4992070;28;20604;-73
2023/12/09 06:41:24;;;;;;;2.35;2.15;;;4.80;99.90;;;;;;4992684;28;20223;-72
2023/12/09 06:43:51;;;;;;;3.60;2.13;;;4.80;99.90;;;;;;4985412;28;20205;-73
2023/12/09 06:46:18;;;;;;;7.10;2.00;;;4.80;99.90;;;;;;4992105;28;20620;-74
2023/12/09 06:48:46;;;;;;;3.40;2.40;;;4.90;99.90;;;;;;4992123;28;20210;-73
2023/12/09 06:51:16;;;;;;;5.30;2.15;;;4.90;99.90;;;;;;4992729;28;20257;-73
2023/12/09 06:53:42;;;;;;;1.77;1.55;;;4.90;99.90;;;;;;5000382;28;20526;-73
2023/12/09 06:56:18;;;;;;;1.52;1.42;;;4.90;99.90;;;;;;4992888;28;20209;-73
2023/12/09 06:58:45;;;;;;;1.70;1.42;;;4.90;99.90;;;;;;4986213;28;20213;-74
2023/12/09 07:01:19;;;;;;;1.83;1.42;;;4.90;99.90;;;;;;4991734;28;20530;-74
2023/12/09 07:03:48;;;;;;;2.63;1.75;;;4.90;99.90;;;;;;4992392;28;20212;-74
2023/12/09 07:06:16;;;;;;;2.85;2.65;;;4.90;99.90;;;;;;4993000;28;20633;-74
2023/12/09 07:08:43;;;;;;;2.55;1.80;;;4.90;99.90;;;;;;4992286;28;20304;-74
2023/12/09 07:11:10;;;;;;;1.70;1.60;;;4.90;99.90;;;;;;4992997;28;20233;-74
2023/12/09 07:13:38;;;;;;;2.80;1.90;;;4.90;99.90;;;;;;4992765;28;20236;-73
2023/12/09 07:16:06;;;;;;;2.45;1.45;;;4.90;99.90;;;;;;4992874;28;20655;-73
2023/12/09 07:18:33;;;;;;;2.92;2.13;;;4.90;99.90;;;;;;4992879;28;20220;-73
2023/12/09 07:21:01;;;;;;;1.40;1.30;;;4.90;99.90;;;;;;4992972;28;20256;-72
2023/12/09 07:23:27;;;;;;;1.85;1.75;;;4.90;99.90;;;;;;4993196;28;20579;-73
2023/12/09 07:25:55;;;;;;;1.40;1.20;;;4.90;99.90;;;;;;4993009;28;20212;-73
2023/12/09 07:28:21;;;;;;;2.45;1.80;;;4.90;99.90;;;;;;4993575;28;20337;-72
2023/12/09 07:30:48;;;;;;;2.45;1.80;;;4.90;99.90;;;;;;4992512;28;20232;-73
2023/12/09 07:33:15;;;;;;;2.35;1.65;;;4.90;99.90;;;;;;4994124;28;20210;-73
2023/12/09 07:35:42;;;;;;;3.55;1.77;;;5.00;99.90;;;;;;4993053;28;20290;-73
2023/12/09 07:38:10;;;;;;;3.92;1.60;;;5.00;99.90;;;;;;4993695;28;20213;-73
2023/12/09 07:40:37;;;;;;;4.93;1.90;;;5.10;99.90;;;;;;4993300;28;20728;-73
2023/12/09 07:43:04;;;;;;;1.70;1.52;;;5.10;99.90;;;;;;4994366;28;20581;-72
2023/12/09 07:45:30;;;;;;;2.95;1.50;;;5.10;99.90;;;;;;5000407;28;20241;-73
2023/12/09 07:47:57;;;;;;;4.20;1.90;;;5.10;99.90;;;;;;4992825;28;20220;-73
2023/12/09 07:50:24;;;;;;;2.80;1.75;;;5.10;99.90;;;;;;4992660;28;20666;-73
2023/12/09 07:52:51;;;;;;;3.10;2.13;;;5.20;99.90;;;;;;4993458;28;20234;-72
2023/12/09 07:55:19;;;;;;;1.58;1.48;;;5.20;99.90;;;;;;4994680;28;20625;-71
2023/12/09 07:57:45;;;;;;;2.17;1.50;;;5.20;99.90;;;;;;4993097;28;20832;-73
2023/12/09 08:00:13;;;;;;;1.95;1.77;;;5.30;99.90;;;;;;4994467;28;20204;-74
2023/12/09 08:02:39;;;;;;;2.15;1.33;;;5.30;99.90;;;;;;4993554;28;20220;-73
2023/12/09 08:05:07;;;;;;;1.35;1.25;;;5.30;99.90;;;;;;4996591;28;20595;-74
2023/12/09 08:07:33;;;;;;;3.00;2.03;;;5.30;99.90;;;;;;4997236;28;20721;-74
2023/12/09 08:10:00;;;;;;;6.35;1.50;;;5.40;99.90;;;;;;4997839;28;20215;-73
2023/12/09 08:12:28;;;;;;;2.10;1.80;;;5.40;99.90;;;;;;4998486;28;20235;-74
2023/12/09 08:14:56;;;;;;;2.30;1.00;;;5.40;99.90;;;;;;4997677;28;20594;-74
2023/12/09 08:17:22;;;;;;;3.15;1.77;;;5.40;99.90;;;;;;4995812;28;20686;-75
2023/12/09 08:19:49;;;;;;;2.65;1.90;;;5.50;99.90;;;;;;4997612;28;20218;-74
2023/12/09 08:22:16;;;;;;;4.55;1.50;;;5.50;99.90;;;;;;4999082;28;20734;-74
2023/12/09 08:24:43;;;;;;;4.82;1.92;;;5.50;99.90;;;;;;4997757;28;20205;-74
2023/12/09 08:27:09;;;;;;;3.17;1.52;;;5.50;99.90;;;;;;4998971;28;20211;-75
2023/12/09 08:29:37;;;;;;;3.55;1.92;;;5.50;99.90;;;;;;4997618;28;20209;-75
2023/12/09 08:32:04;;;;;;;1.33;1.10;;;5.50;99.90;;;;;;4998411;28;20238;-75
2023/12/09 08:34:31;;;;;;;2.28;2.00;;;5.50;99.90;;;;;;4998276;28;20213;-74
2023/12/09 08:36:58;;;;;;;3.03;1.85;;;5.60;99.90;;;;;;4997688;28;20203;-74
2023/12/09 08:39:24;;;;;;;3.42;2.08;;;5.50;99.90;;;;;;4998421;28;20209;-74
2023/12/09 08:41:51;;;;;;;1.40;1.20;;;5.50;99.90;;;;;;4996266;28;20229;-74
2023/12/09 08:44:18;;;;;;;1.40;1.30;;;5.50;99.90;;;;;;4999518;28;20218;-74
2023/12/09 08:46:46;;;;;;;4.63;1.77;;;5.50;99.90;;;;;;4997873;28;20230;-74
2023/12/09 08:49:13;;;;;;;2.08;1.25;;;5.50;99.90;;;;;;4999394;28;20229;-74
2023/12/09 08:51:46;;;;;;;3.00;1.67;;;5.60;99.90;;;;;;4997794;28;20228;-75
2023/12/09 08:54:13;;;;;;;3.20;2.13;;;5.70;99.90;;;;;;4999856;28;20212;-75
2023/12/09 08:56:40;;;;;;;1.77;1.48;;;5.70;99.90;;;;;;4997954;28;20204;-75
2023/12/09 08:59:08;;;;;;;1.98;1.38;;;5.70;99.90;;;;;;5000323;28;20668;-74
2023/12/09 09:01:34;;;;;;;2.25;1.92;;;5.80;99.90;;;;;;4998653;28;20224;-76
2023/12/09 09:04:03;;;;;;;1.45;1.33;;;5.80;99.90;;;;;;4998403;28;20235;-75
2023/12/09 09:06:30;;;;;;;2.45;1.27;;;5.90;99.90;;;;;;4998920;28;20234;-76
2023/12/09 09:08:57;;;;;;;2.08;1.65;;;5.90;99.90;;;;;;4997621;28;20206;-75
2023/12/09 09:11:24;;;;;;;2.60;1.55;;;5.90;99.90;;;;;;4996102;28;20229;-75
2023/12/09 09:13:50;;;;;;;1.92;1.38;;;5.90;99.90;;;;;;4998016;28;20304;-75
2023/12/09 09:16:18;;;;;;;2.38;1.63;;;5.90;99.90;;;;;;4998934;28;20229;-75
2023/12/09 09:18:44;;;;;;;1.83;1.60;;;6.00;99.90;;;;;;4997660;28;20696;-76
2023/12/09 09:21:12;;;;;;;2.83;2.00;;;6.10;99.90;;;;;;5000021;28;20241;-75
2023/12/09 09:23:39;;;;;;;2.20;1.63;;;6.10;99.90;;;;;;4992555;28;20202;-76
2023/12/09 09:26:06;;;;;;;2.08;1.80;;;6.00;99.90;;;;;;4999109;28;20207;-76
2023/12/09 09:28:33;;;;;;;1.08;0.95;;;6.00;99.90;;;;;;4998611;28;20221;-76
2023/12/09 09:30:59;;;;;;;2.53;1.65;;;6.00;99.90;;;;;;4998471;28;20254;-76
2023/12/09 09:33:26;;;;;;;3.75;1.15;;;6.00;99.90;;;;;;5000123;28;20244;-76
2023/12/09 09:35:54;;;;;;;1.10;1.00;;;6.00;99.90;;;;;;4998279;28;20210;-75
2023/12/09 09:38:22;;;;;;;2.65;1.77;;;6.00;99.90;;;;;;5000248;28;20217;-76
2023/12/09 09:40:50;;;;;;;1.73;1.42;;;6.00;99.90;;;;;;4998150;28;20231;-75
2023/12/09 09:43:21;;;;;;;4.10;1.95;;;6.10;99.90;;;;;;5000931;28;20202;-76
2023/12/09 09:45:48;;;;;;;1.58;1.48;;;6.20;99.90;;;;;;4998166;28;20638;-75
2023/12/09 09:48:17;;;;;;;2.22;2.03;;;6.30;99.90;;;;;;5000341;28;20207;-75
2023/12/09 09:50:47;;;;;;;1.70;1.60;;;6.30;99.90;;;;;;4993176;28;20231;-76
2023/12/09 09:53:20;;;;;;;1.75;1.65;;;6.40;99.90;;;;;;5000640;28;20219;-76
2023/12/09 09:55:49;;;;;;;2.50;1.50;;;6.50;99.90;;;;;;4993646;28;20672;-75
2023/12/09 09:58:16;;;;;;;1.88;1.45;;;6.50;99.90;;;;;;5000409;28;20207;-75
2023/12/09 10:00:44;;;;;;;2.05;1.85;;;6.50;99.90;;;;;;5003592;28;20231;-75
2023/12/09 10:03:11;;;;;;;1.70;1.58;;;6.60;99.90;;;;;;5000216;28;20206;-75
2023/12/09 10:05:38;;;;;;;3.50;1.73;;;6.50;99.90;;;;;;4999137;28;20620;-75
2023/12/09 10:08:05;;;;;;;1.63;1.20;;;6.50;99.90;;;;;;4998996;28;20617;-75
2023/12/09 10:10:34;;;;;;;6.40;2.55;;;6.60;99.90;;;;;;4994863;28;20207;-75
2023/12/09 10:13:02;;;;;;;1.98;1.50;;;6.70;99.90;;;;;;4998882;28;20224;-75
2023/12/09 10:15:29;;;;;;;2.47;1.50;;;6.90;99.90;;;;;;5000552;28;20202;-75
2023/12/09 10:18:01;;;;;;;3.03;1.83;;;6.90;99.90;;;;;;4997919;28;20204;-76
2023/12/09 10:20:30;;;;;;;2.53;2.33;;;6.90;99.90;;;;;;4996295;28;20213;-75
2023/12/09 10:22:58;;;;;;;2.47;1.65;;;6.80;99.90;;;;;;4998550;28;20254;-75
2023/12/09 10:25:25;;;;;;;1.95;1.45;;;6.70;99.90;;;;;;4995944;28;20206;-75
2023/12/09 10:27:52;;;;;;;1.55;1.45;;;6.60;99.90;;;;;;4997816;28;20623;-75
2023/12/09 10:30:20;;;;;;;1.77;1.60;;;6.40;99.90;;;;;;5001469;28;20272;-75
2023/12/09 10:32:48;;;;;;;1.50;1.40;;;6.40;99.90;;;;;;5003197;28;20223;-76
2023/12/09 10:35:17;;;;;;;2.30;2.10;;;6.40;99.90;;;;;;5000971;28;20203;-76
2023/12/09 10:37:43;;;;;;;2.85;1.88;;;6.50;99.90;;;;;;4998220;28;20631;-76
2023/12/09 10:40:13;;;;;;;2.55;1.40;;;6.70;99.90;;;;;;5000470;28;20230;-75
2023/12/09 10:42:40;;;;;;;1.80;1.50;;;6.90;99.90;;;;;;4999414;28;20242;-76
2023/12/09 10:45:08;;;;;;;1.58;1.40;;;7.10;99.90;;;;;;4999917;28;20210;-75
2023/12/09 10:47:36;;;;;;;2.28;1.88;;;7.10;99.90;;;;;;4999679;28;20203;-76
2023/12/09 10:50:03;;;;;;;5.22;1.50;;;7.00;99.90;;;;;;4999328;28;20680;-75
2023/12/09 10:52:30;;;;;;;2.72;1.17;;;7.00;99.90;;;;;;5000869;28;20237;-75
2023/12/09 10:54:58;;;;;;;1.98;1.48;;;6.90;99.90;;;;;;4998697;28;20215;-75
2023/12/09 10:57:25;;;;;;;2.20;1.40;;;6.90;99.90;;;;;;4994986;28;20249;-75
2023/12/09 10:59:52;;;;;;;1.60;1.50;;;6.90;99.90;;;;;;4998801;28;20672;-76
2023/12/09 11:02:21;;;;;;;3.40;1.60;;;7.00;99.90;;;;;;5001753;28;20218;-76
2023/12/09 11:04:50;;;;;;;3.28;1.80;;;7.10;99.90;;;;;;4994196;28;20213;-76
2023/12/09 11:07:18;;;;;;;1.65;1.40;;;7.20;99.90;;;;;;5001390;28;20210;-76
2023/12/09 11:09:46;;;;;;;3.88;2.08;;;7.30;99.90;;;;;;4998910;28;20222;-75
2023/12/09 11:12:26;;;;;;;1.90;1.60;;;7.70;99.90;;;;;;4997017;28;20234;-76
2023/12/09 11:14:53;;;;;;;1.75;1.52;;;7.80;99.90;;;;;;4998614;28;20210;-76
2023/12/09 11:17:34;;;;;;;1.77;1.20;;;7.80;99.90;;;;;;5001700;28;20203;-75
2023/12/09 11:20:09;;;;;;;2.17;1.98;;;7.90;99.90;;;;;;4999279;28;20231;-75
2023/12/09 11:22:37;;;;;;;1.88;1.38;;;7.80;99.90;;;;;;5000879;28;20234;-75
2023/12/09 11:25:05;;;;;;;2.13;1.60;;;7.60;99.90;;;;;;4999893;28;20207;-76
2023/12/09 11:27:34;;;;;;;3.40;2.25;;;7.40;99.90;;;;;;5000987;28;20203;-76
2023/12/09 11:30:01;;;;;;;1.98;1.70;;;7.20;99.90;;;;;;4999542;28;20289;-75
2023/12/09 11:32:29;;;;;;;2.25;2.05;;;7.10;99.90;;;;;;5001944;28;20241;-76
2023/12/09 11:34:56;;;;;;;2.10;1.80;;;7.00;99.90;;;;;;4999078;28;20252;-76
2023/12/09 11:37:27;;;;;;;3.00;1.75;;;7.00;99.90;;;;;;4994649;28;20207;-76
2023/12/09 11:39:55;;;;;;;2.10;1.63;;;7.00;99.90;;;;;;4998521;28;20204;-75
2023/12/09 11:42:23;;;;;;;2.05;1.55;;;7.00;99.90;;;;;;5006973;28;20218;-76
2023/12/09 11:44:51;;;;;;;1.77;1.50;;;7.00;99.90;;;;;;4999660;28;20748;-76
2023/12/09 11:47:19;;;;;;;2.40;1.77;;;7.00;99.90;;;;;;5002046;28;20217;-75
2023/12/09 11:49:47;;;;;;;1.70;1.60;;;7.00;99.90;;;;;;4999622;28;20679;-76
2023/12/09 11:52:14;;;;;;;3.35;2.22;;;6.90;99.90;;;;;;5001574;28;20290;-76
2023/12/09 11:54:42;;;;;;;1.90;1.55;;;6.80;99.90;;;;;;5000832;28;20221;-75
2023/12/09 11:57:09;;;;;;;2.38;1.90;;;6.80;99.90;;;;;;5000754;28;20207;-76
2023/12/09 11:59:37;;;;;;;2.33;2.03;;;6.80;99.90;;;;;;5001338;28;20206;-76
2023/12/09 12:02:04;;;;;;;1.50;1.40;;;6.90;99.90;;;;;;5000491;28;20227;-76
2023/12/09 12:04:33;;;;;;;1.70;1.60;;;7.10;99.90;;;;;;5002661;28;20577;-75
2023/12/09 12:07:00;;;;;;;1.65;1.55;;;7.20;99.90;;;;;;4999552;28;20210;-76
2023/12/09 12:09:27;;;;;;;2.55;1.75;;;7.30;99.90;;;;;;5002813;28;20247;-75
2023/12/09 12:11:56;;;;;;;2.17;1.98;;;7.20;99.90;;;;;;4999549;28;20230;-75
2023/12/09 12:14:22;;;;;;;2.10;1.90;;;7.20;99.90;;;;;;5003447;28;20597;-75
2023/12/09 12:16:49;;;;;;;1.60;1.50;;;7.20;99.90;;;;;;5000839;28;20220;-74
2023/12/09 12:19:18;;;;;;;3.05;1.92;;;7.20;99.90;;;;;;5002561;28;20582;-74
2023/12/09 12:21:44;;;;;;;1.90;1.60;;;7.20;99.90;;;;;;5001672;28;20237;-74
2023/12/09 12:24:11;;;;;;;1.88;1.77;;;7.10;99.90;;;;;;5002821;28;20207;-74
2023/12/09 12:26:38;;;;;;;2.20;1.70;;;7.10;99.90;;;;;;5002138;28;20210;-74
2023/12/09 12:29:08;;;;;;;3.38;1.60;;;7.10;99.90;;;;;;5000454;28;20672;-74
2023/12/09 12:31:35;;;;;;;2.92;2.20;;;7.10;99.90;;;;;;5002755;28;20230;-74
2023/12/09 12:34:14;;;;;;;3.25;1.70;;;7.20;99.90;;;;;;5000492;28;20246;-74
2023/12/09 12:36:41;;;;;;;2.03;1.85;;;7.20;99.90;;;;;;5001999;28;20203;-74
2023/12/09 12:39:08;;;;;;;1.73;1.63;;;7.20;99.90;;;;;;5001540;28;20207;-76
2023/12/09 12:41:35;;;;;;;2.33;2.15;;;7.20;99.90;;;;;;5003063;28;20234;-75
2023/12/09 12:44:01;;;;;;;1.90;1.67;;;7.40;99.90;;;;;;5000867;28;20200;-75
2023/12/09 12:46:30;;;;;;;1.80;1.65;;;7.80;99.90;;;;;;5003968;28;20217;-74
2023/12/09 12:48:56;;;;;;;3.03;1.80;;;8.00;99.90;;;;;;4999913;28;20229;-77
2023/12/09 12:51:23;;;;;;;1.80;1.55;;;8.10;99.90;;;;;;5000902;28;20241;-74
2023/12/09 12:53:50;;;;;;;1.85;1.60;;;8.10;99.90;;;;;;5004964;28;20222;-74
2023/12/09 12:56:17;;;;;;;1.50;1.40;;;8.20;99.90;;;;;;5006412;28;20211;-74
2023/12/09 12:58:44;;;;;;;3.08;1.48;;;8.10;99.90;;;;;;5005574;28;20214;-76
2023/12/09 13:01:10;;;;;;;2.13;1.63;;;8.10;99.90;;;;;;5005780;28;20219;-74
2023/12/09 13:03:38;;;;;;;2.08;1.40;;;8.00;99.90;;;;;;5006792;28;20210;-74
2023/12/09 13:06:06;;;;;;;1.67;1.35;;;7.90;99.90;;;;;;5005114;28;20208;-74
2023/12/09 13:08:32;;;;;;;1.65;1.42;;;7.90;99.90;;;;;;5007328;28;20210;-74
2023/12/09 13:10:59;;;;;;;3.05;1.45;;;8.00;99.90;;;;;;5004485;28;20708;-74
2023/12/09 13:13:26;;;;;;;1.85;1.65;;;7.90;99.90;;;;;;5007524;28;20222;-73
2023/12/09 13:15:54;;;;;;;1.63;1.50;;;7.90;99.90;;;;;;5004781;28;20293;-74
2023/12/09 13:18:23;;;;;;;1.65;1.50;;;7.80;99.90;;;;;;5007039;28;20302;-74
2023/12/09 13:20:52;;;;;;;2.33;1.70;;;7.70;99.90;;;;;;5005744;28;20234;-75
2023/12/09 13:23:19;;;;;;;2.03;1.60;;;7.70;99.90;;;;;;5007090;28;20206;-75
2023/12/09 13:25:46;;;;;;;1.70;1.60;;;7.60;99.90;;;;;;5006045;28;20585;-75
2023/12/09 13:28:13;;;;;;;1.58;1.48;;;7.60;99.90;;;;;;5006002;28;20219;-73
2023/12/09 13:30:40;;;;;;;1.67;1.35;;;7.60;99.90;;;;;;5006957;28;20226;-74
2023/12/09 13:33:06;;;;;;;2.30;1.85;;;7.50;99.90;;;;;;5005291;28;20234;-74
2023/12/09 13:35:33;;;;;;;1.55;1.40;;;7.40;99.90;;;;;;5007709;28;20211;-73
2023/12/09 13:38:01;;;;;;;2.08;1.45;;;7.40;99.90;;;;;;5004226;28;20211;-73
2023/12/09 13:40:28;;;;;;;1.60;1.48;;;7.30;99.90;;;;;;5007633;28;20206;-73
2023/12/09 13:42:55;;;;;;;2.45;1.98;;;7.30;99.90;;;;;;5005233;28;20218;-73
2023/12/09 13:45:22;;;;;;;1.33;1.20;;;7.20;99.90;;;;;;5005107;28;20237;-73
2023/12/09 13:47:48;;;;;;;2.97;1.65;;;7.10;99.90;;;;;;5005714;28;20265;-73
2023/12/09 13:50:15;;;;;;;2.10;1.90;;;7.10;99.90;;;;;;5006841;28;20213;-73
2023/12/09 13:52:42;;;;;;;1.63;1.50;;;7.10;99.90;;;;;;5004851;28;20217;-73
2023/12/09 13:55:10;;;;;;;1.88;1.67;;;7.10;99.90;;;;;;5005808;28;20599;-73
2023/12/09 13:57:37;;;;;;;1.63;1.50;;;7.00;99.90;;;;;;5007442;28;20246;-73
2023/12/09 14:00:07;;;;;;;2.13;1.60;;;7.00;99.90;;;;;;5004942;28;20207;-73
2023/12/09 14:02:34;;;;;;;1.65;1.42;;;7.00;99.90;;;;;;5007205;28;20257;-73
2023/12/09 14:05:01;;;;;;;2.03;1.45;;;7.00;99.90;;;;;;5005446;28;20203;-73
2023/12/09 14:07:28;;;;;;;1.30;1.20;;;7.00;99.90;;;;;;5007631;28;20298;-74
2023/12/09 14:09:58;;;;;;;1.90;1.60;;;7.00;99.90;;;;;;5005677;28;20207;-74
2023/12/09 14:12:27;;;;;;;2.95;2.50;;;6.90;99.90;;;;;;5002730;28;20226;-74
2023/12/09 14:14:53;;;;;;;1.17;1.08;;;6.90;99.90;;;;;;5005923;28;20308;-74
2023/12/09 14:17:20;;;;;;;1.65;1.25;;;7.00;99.90;;;;;;5007566;28;20209;-74
2023/12/09 14:19:48;;;;;;;1.65;1.25;;;7.00;99.90;;;;;;5006613;28;20215;-74
2023/12/09 14:22:15;;;;;;;1.27;1.17;;;7.00;99.90;;;;;;5007046;28;20227;-74
2023/12/09 14:24:42;;;;;;;1.90;1.27;;;7.00;99.90;;;;;;5008058;28;20202;-74
2023/12/09 14:27:09;;;;;;;1.30;1.20;;;6.90;99.90;;;;;;5005956;28;20215;-73
2023/12/09 14:29:37;;;;;;;2.88;1.63;;;7.00;99.90;;;;;;5007661;28;20207;-73
2023/12/09 14:32:03;;;;;;;1.48;1.38;;;7.00;99.90;;;;;;5005124;28;20235;-73
2023/12/09 14:34:30;;;;;;;1.90;1.30;;;7.00;99.90;;;;;;5007716;28;20219;-73
2023/12/09 14:36:57;;;;;;;1.70;1.60;;;7.00;99.90;;;;;;5005557;28;20225;-74
2023/12/09 14:39:24;;;;;;;2.17;1.52;;;7.00;99.90;;;;;;4995768;28;20202;-74
2023/12/09 14:41:51;;;;;;;1.60;1.50;;;7.00;99.90;;;;;;5006645;28;20633;-73
2023/12/09 14:44:18;;;;;;;2.38;1.60;;;6.90;99.90;;;;;;5007781;28;20203;-74
2023/12/09 14:46:46;;;;;;;2.15;1.40;;;6.90;99.90;;;;;;5007649;28;20733;-73
2023/12/09 14:49:13;;;;;;;2.22;1.80;;;6.80;99.90;;;;;;5006454;28;20206;-73
2023/12/09 14:51:41;;;;;;;2.38;1.77;;;6.80;99.90;;;;;;5008539;28;20281;-73
2023/12/09 14:54:07;;;;;;;2.20;2.00;;;6.80;99.90;;;;;;5006132;28;20230;-73
2023/12/09 14:56:34;;;;;;;2.65;1.65;;;6.70;99.90;;;;;;5007936;28;20229;-73
2023/12/09 14:59:02;;;;;;;2.30;1.83;;;6.60;99.90;;;;;;5005895;28;20214;-73
2023/12/09 15:01:28;;;;;;;3.00;2.10;;;6.50;99.90;;;;;;5008493;28;20230;-73
2023/12/09 15:03:58;;;;;;;3.20;1.77;;;6.40;99.90;;;;;;5006571;28;20198;-73
2023/12/09 15:06:24;;;;;;;2.00;1.42;;;6.40;99.90;;;;;;4995795;28;20203;-73
2023/12/09 15:08:51;;;;;;;2.60;1.70;;;6.40;99.90;;;;;;5006920;28;20597;-73
2023/12/09 15:11:18;;;;;;;2.45;1.80;;;6.30;99.90;;;;;;5007493;28;20234;-73
2023/12/09 15:13:44;;;;;;;2.40;1.73;;;6.30;99.90;;;;;;5008125;28;20231;-73
2023/12/09 15:16:11;;;;;;;2.03;1.65;;;6.30;99.90;;;;;;5005955;28;20567;-73
2023/12/09 15:18:38;;;;;;;2.38;1.92;;;6.30;99.90;;;;;;5008138;28;20214;-73
2023/12/09 15:21:07;;;;;;;1.40;1.30;;;6.30;99.90;;;;;;5006576;28;20225;-73
2023/12/09 15:23:34;;;;;;;2.58;1.60;;;6.30;99.90;;;;;;5008341;28;20211;-73
2023/12/09 15:26:01;;;;;;;1.48;1.20;;;6.30;99.90;;;;;;5006242;28;20321;-73
2023/12/09 15:28:28;;;;;;;2.45;1.80;;;6.30;99.90;;;;;;5008190;28;20569;-73
2023/12/09 15:30:55;;;;;;;1.83;1.50;;;6.30;99.90;;;;;;5006991;28;20301;-75
2023/12/09 15:33:23;;;;;;;2.25;1.95;;;6.30;99.90;;;;;;5002465;28;20203;-74
2023/12/09 15:35:50;;;;;;;1.80;1.45;;;6.20;99.90;;;;;;5003951;28;20226;-74
2023/12/09 15:38:19;;;;;;;2.15;1.42;;;6.20;99.90;;;;;;5009016;28;20204;-74
2023/12/09 15:40:46;;;;;;;1.85;1.20;;;6.20;99.90;;;;;;5008541;28;20233;-74
2023/12/09 15:43:13;;;;;;;1.63;1.52;;;6.20;99.90;;;;;;5007568;28;20204;-74
2023/12/09 15:45:41;;;;;;;4.65;1.70;;;6.20;99.90;;;;;;5011488;28;20577;-74
2023/12/09 15:48:08;;;;;;;1.50;1.40;;;6.10;99.90;;;;;;5001611;28;20209;-75
2023/12/09 15:50:36;;;;;;;2.55;1.35;;;6.00;99.90;;;;;;5011751;28;20280;-74
2023/12/09 15:53:03;;;;;;;1.75;1.65;;;5.90;99.90;;;;;;5010367;28;20798;-74
2023/12/09 15:55:32;;;;;;;2.20;1.73;;;5.90;99.90;;;;;;5011063;28;20221;-74
2023/12/09 15:58:00;;;;;;;3.63;2.25;;;5.90;99.90;;;;;;5008734;28;20208;-74
2023/12/09 16:00:27;;;;;;;2.17;1.30;;;5.90;99.90;;;;;;5010529;28;20737;-74
2023/12/09 16:02:55;;;;;;;2.72;1.88;;;5.80;99.90;;;;;;5011228;28;20205;-74
2023/12/09 16:05:23;;;;;;;1.48;1.30;;;5.80;99.90;;;;;;5009188;28;20693;-74
2023/12/09 16:07:50;;;;;;;2.03;1.83;;;5.80;99.90;;;;;;5010791;28;20229;-74
2023/12/09 16:10:18;;;;;;;1.63;1.52;;;5.80;99.90;;;;;;5008925;28;20213;-74
2023/12/09 16:12:47;;;;;;;3.85;1.80;;;5.80;99.90;;;;;;5007025;28;20620;-74
2023/12/09 16:15:14;;;;;;;3.67;1.42;;;5.80;99.90;;;;;;5009302;28;20727;-74
2023/12/09 16:17:43;;;;;;;2.45;2.10;;;5.70;99.90;;;;;;5009363;28;20646;-74
2023/12/09 16:20:11;;;;;;;2.00;1.75;;;5.80;99.90;;;;;;5009550;28;20233;-74
2023/12/09 16:22:39;;;;;;;2.10;1.83;;;5.80;99.90;;;;;;5007118;28;20232;-74
2023/12/09 16:25:07;;;;;;;2.80;2.10;;;5.80;99.90;;;;;;5009445;28;20259;-74
2023/12/09 16:27:35;;;;;;;2.53;1.70;;;5.80;99.90;;;;;;5009002;28;20211;-74
2023/12/09 16:30:04;;;;;;;5.45;1.95;;;5.80;99.90;;;;;;5004993;28;20200;-74
2023/12/09 16:32:32;;;;;;;1.45;1.10;;;5.70;99.90;;;;;;5006192;28;20260;-75
2023/12/09 16:34:59;;;;;;;1.38;1.27;;;5.70;99.90;;;;;;5006289;28;20215;-74
2023/12/09 16:37:27;;;;;;;1.90;1.50;;;5.70;99.90;;;;;;5008431;28;20213;-74
2023/12/09 16:39:54;;;;;;;2.22;1.30;;;5.70;99.90;;;;;;5013448;28;20219;-74
2023/12/09 16:42:21;;;;;;;2.45;1.75;;;5.70;99.90;;;;;;5010417;28;20264;-73
2023/12/09 16:44:47;;;;;;;3.08;1.63;;;5.70;99.90;;;;;;5009371;28;20593;-73
2023/12/09 16:47:18;;;;;;;3.17;1.90;;;5.70;99.90;;;;;;5012696;28;20220;-72
2023/12/09 16:49:45;;;;;;;2.25;1.85;;;5.70;99.90;;;;;;5006417;28;20221;-73
2023/12/09 16:52:12;;;;;;;3.80;2.25;;;5.60;99.90;;;;;;5005712;28;20223;-73
2023/12/09 16:54:39;;;;;;;1.95;1.73;;;5.60;99.90;;;;;;5004836;28;20256;-73
2023/12/09 16:57:05;;;;;;;1.73;1.60;;;5.70;99.90;;;;;;5006043;28;20211;-73
2023/12/09 16:59:32;;;;;;;2.65;1.83;;;5.70;99.90;;;;;;5004296;28;20301;-73
2023/12/09 17:01:59;;;;;;;1.63;1.52;;;5.70;99.90;;;;;;5013014;28;20225;-73
2023/12/09 17:04:27;;;;;;;1.50;1.40;;;5.70;99.90;;;;;;5001631;28;20668;-72
2023/12/09 17:06:54;;;;;;;1.15;1.05;;;5.70;99.90;;;;;;4994001;28;20215;-73
2023/12/09 17:09:21;;;;;;;2.30;1.90;;;5.70;99.90;;;;;;4997424;28;20213;-72
2023/12/09 17:11:49;;;;;;;1.42;1.10;;;5.70;99.90;;;;;;5002934;28;20782;-72
2023/12/09 17:14:16;;;;;;;2.00;1.40;;;5.70;99.90;;;;;;5002422;28;20605;-72